Air Sicilia Virtual Airways - Route

Air Sicilia Virtual Airways - SIC320L

( PK ) OPSK
Sukkur Airport
MIRPUR KHAS ( SKZ )
plane_to ( IN ) VOBG
HAL Airport
BANGALORE ( )
Business Exec World Tour 2018 - LEG: 44

AIRPORT NEAR NAVIGATION AIDS

Type Name Frequency
NDB Sukkur 375 KHZ

METAR / TAF
OPSK 191600Z 00000KT 4000 HZ SCT040 BKN100 34/19 Q1003 NOSIG
OPSK 190930Z 1912/2012 16008KT 4000 HZ SCT030 SCT100 TEMPO 2000/2004 VRB03KT 3000 FU SCT100 FM200700 14010KT 5000 HZ SCT030 SCT100

RUNWAY INFORMATION

Runway Runway length Runway width Runway elevation Runway displaced threshold Runway heading
14 9000 98 196 0 140.5
32 9000 98 192 0 320.5

AIRPORT FREQUENCIES

Type Name Frequency
GND TWR 121.8 MHZ
TWR TWR 122.5 MHZ

AIRPORT NEAR NAVIGATION AIDS

Type Name Frequency
VOR-DME Bangalore 115500 KHZ
NDB Bangalore 363 KHZ

METAR / TAF
VOBG 191600Z VRB03KT 8000 FEW015 29/19 Q1014

RUNWAY INFORMATION

Runway Runway length Runway width Runway elevation Runway displaced threshold Runway heading
09 10850 200 2874 0 85
27 10850 200 2893 0 265

AIRPORT FREQUENCIES

Type Name Frequency
APP APP 127.7 MHZ
ATIS ATIS 128.25 MHZ
TWR TWR 123.5 MHZ

Flightplan

KAPRO AKMEN ZOHAR RAMSA TASOP APANO VAOZ KAKPO LUKTI AGELA IGMAR BUBVA

Air Sicilia Virtual Airways Fleets

AVAILABLE AIRCRAFTS for route at this time in Sukkur Airport
C550 - Cessna 550 Citation II
( US ) Cessna

Aircraft in fleet: 1

CL30 - BD-100 Challenger 300
( CA ) Bombardier

Aircraft in fleet: 1

LJ35 - Bombardier Learjet 35A
( CA ) Bombardier

Aircraft in fleet: 1

1010 NM

Distance in nautical miles.

€ 300,00

Ticket price for this flight.

Nr. 44

Leg



12-11-2018
Aerosoft Airport Rio de Janeiro International V2.0 XP

L'Aeroporto Internazionale di Rio de Janeiro-Galeão (IATA: GIG, ICAO: SBGL), costruito nel 1952 nel quartiere di Ilha do Governador ed intitolato al musicista Antônio Carlos Jobim, è il principale aeroporto internazio ....


15-10-2018
Aerosoft A320 Family professional

La gamma di aeromobili A320 è una delle più comuni nei cieli. Questi aerei di linea a doppio-getto a corto e medio raggio si sono dimostrati convenienti, affidabili e prontamente disponibili, rendendoli le opzioni migl ....


10-10-2018
Motore critico ( Critical Engine )

Il motore critico di un velivolo ad ala fissa multi-motore è il motore che, in caso di guasto, influirebbe negativamente sulle prestazioni o sulla capacità di manovra di un aereo. Sui velivoli ad elica, vi è un ....


04-10-2018
Aerosoft Dortmund XP

Scopri il centro della regione della Ruhr su XPlane 11 - lo scenario Dortmund XP è una ricostruzione completa della città di Dortmund per il simulatore di volo targato Laminar. Oltre all'intera area urbana di Dortmu ....


07-08-2018
Aerosoft Professional Flight Planner PFPX

PFPX - Professional Flight Planner X - è un nuovo ed innovativo strumento di pianificazione del volo sviluppato da piloti e dispatcher del mondo reale. È un'aggiunta preziosa e realistica alla tua esperienza di simulaz ....